PWSweather.com
Personal Weather Stations
Station Observations
K4FB1
Clubhouse Heritage, Lakeland, FL 33812

Clubhouse HeritageLakeland, FL 33812

Lat: 27.969224, Lon: -81.897769

Elevation: 145

Station Type: Davis Vantage Pro2

http://www.ClubhouseWX.com

High Low Average
Temperature 85.4°F29.7°C 59.9°F15.5°C 70.3°F21.3°C
Dew Point 70.7°F21.5°C -35.0°F-37.2°C -9.6°F-23.1°C
Winds 10.0 mph 16.1 kmh Calm Calm 2.0 mph SE3.2 kmh SE
Wind Gusts 20.0 mph32.2 kmh -- 5.0 mph8.0 kmh
Humidity 68% 0% 14%
Pressure 30.19 in1022.4 mb 29.97 in1014.9 mb -
Precipitation 0.32 in8.1 mm - -
Hour Temp Dew Point Humidity Winds Wind Gusts Pressure Precip Precip Rate Daily Precip Total
12:00 AM 65.2°F18.4°C -35.0°F-37.2°C 0% 7.0 mph SE11.3 kmh SE 11.0 mph17.7 kmh 30.22 in1023.4 mb 0.00 in0.0 mm 0.00 in0.0 mm 0.64 in16.3 mm
12:05 AM 65.0°F18.3°C -35.0°F-37.2°C 0% 6.0 mph SE9.7 kmh SE 13.0 mph20.9 kmh 30.22 in1023.4 mb 0.00 in0.0 mm 0.00 in0.0 mm 0.64 in16.3 mm
12:10 AM 64.9°F18.3°C -35.0°F-37.2°C 0% 6.0 mph SE9.7 kmh SE 13.0 mph20.9 kmh 30.21 in1023.0 mb 0.00 in0.0 mm 0.00 in0.0 mm 0.64 in16.3 mm
12:15 AM 64.9°F18.3°C -35.0°F-37.2°C 0% 6.0 mph SE9.7 kmh SE 10.0 mph16.1 kmh 30.21 in1023.0 mb 0.00 in0.0 mm 0.00 in0.0 mm 0.64 in16.3 mm
12:20 AM 64.8°F18.2°C -35.0°F-37.2°C 0% 6.0 mph SE9.7 kmh SE 10.0 mph16.1 kmh 30.21 in1023.0 mb 0.00 in0.0 mm 0.00 in0.0 mm 0.64 in16.3 mm
12:25 AM 64.8°F18.2°C -35.0°F-37.2°C 0% 6.0 mph SE9.7 kmh SE 13.0 mph20.9 kmh 30.20 in1022.7 mb 0.00 in0.0 mm 0.00 in0.0 mm 0.64 in16.3 mm
12:30 AM 64.7°F18.2°C -35.0°F-37.2°C 0% 6.0 mph SE9.7 kmh SE 14.0 mph22.5 kmh 30.20 in1022.7 mb 0.00 in0.0 mm 0.00 in0.0 mm 0.64 in16.3 mm
12:35 AM 64.7°F18.2°C -35.0°F-37.2°C 0% 6.0 mph SE9.7 kmh SE 14.0 mph22.5 kmh 30.20 in1022.7 mb 0.00 in0.0 mm 0.00 in0.0 mm 0.64 in16.3 mm
12:40 AM 64.6°F18.1°C -35.0°F-37.2°C 0% 6.0 mph SE9.7 kmh SE 12.0 mph19.3 kmh 30.20 in1022.7 mb 0.00 in0.0 mm 0.00 in0.0 mm 0.64 in16.3 mm
12:45 AM 64.5°F18.1°C -35.0°F-37.2°C 0% 6.0 mph SE9.7 kmh SE 11.0 mph17.7 kmh 30.20 in1022.7 mb 0.00 in0.0 mm 0.00 in0.0 mm 0.64 in16.3 mm
12:50 AM 64.4°F18.0°C -35.0°F-37.2°C 0% 6.0 mph SE9.7 kmh SE 10.0 mph16.1 kmh 30.20 in1022.7 mb 0.00 in0.0 mm 0.00 in0.0 mm 0.64 in16.3 mm
12:55 AM 64.4°F18.0°C -35.0°F-37.2°C 0% 6.0 mph SE9.7 kmh SE 10.0 mph16.1 kmh 30.19 in1022.4 mb 0.01 in0.3 mm 0.12 in3.0 mm 0.65 in16.5 mm
01:00 AM 64.4°F18.0°C -35.0°F-37.2°C 0% 5.0 mph SE8.0 kmh SE 11.0 mph17.7 kmh 30.19 in1022.4 mb 0.01 in0.3 mm 0.00 in0.0 mm 0.01 in0.3 mm
01:05 AM 64.4°F18.0°C -35.0°F-37.2°C 0% 6.0 mph SE9.7 kmh SE 11.0 mph17.7 kmh 30.18 in1022.0 mb 0.01 in0.3 mm 0.00 in0.0 mm 0.01 in0.3 mm
01:10 AM 64.4°F18.0°C -35.0°F-37.2°C 0% 6.0 mph SE9.7 kmh SE 11.0 mph17.7 kmh 30.18 in1022.0 mb 0.01 in0.3 mm 0.00 in0.0 mm 0.01 in0.3 mm
01:15 AM 64.4°F18.0°C -35.0°F-37.2°C 0% 6.0 mph SE9.7 kmh SE 12.0 mph19.3 kmh 30.18 in1022.0 mb 0.01 in0.3 mm 0.00 in0.0 mm 0.01 in0.3 mm
01:20 AM 64.4°F18.0°C -35.0°F-37.2°C 0% 7.0 mph SE11.3 kmh SE 14.0 mph22.5 kmh 30.17 in1021.7 mb 0.02 in0.5 mm 0.12 in3.0 mm 0.01 in0.3 mm
01:25 AM 64.5°F18.1°C -35.0°F-37.2°C 0% 7.0 mph SE11.3 kmh SE 14.0 mph22.5 kmh 30.17 in1021.7 mb 0.02 in0.5 mm 0.00 in0.0 mm 0.01 in0.3 mm
01:30 AM 64.5°F18.1°C -35.0°F-37.2°C 0% 7.0 mph SE11.3 kmh SE 13.0 mph20.9 kmh 30.16 in1021.3 mb 0.02 in0.5 mm 0.00 in0.0 mm 0.01 in0.3 mm
01:35 AM 64.6°F18.1°C -35.0°F-37.2°C 0% 7.0 mph SE11.3 kmh SE 13.0 mph20.9 kmh 30.16 in1021.3 mb 0.02 in0.5 mm 0.00 in0.0 mm 0.01 in0.3 mm
01:40 AM 64.7°F18.2°C -35.0°F-37.2°C 0% 7.0 mph SE11.3 kmh SE 14.0 mph22.5 kmh 30.16 in1021.3 mb 0.02 in0.5 mm 0.00 in0.0 mm 0.01 in0.3 mm
01:45 AM 64.8°F18.2°C -35.0°F-37.2°C 0% 7.0 mph SE11.3 kmh SE 14.0 mph22.5 kmh 30.16 in1021.3 mb 0.02 in0.5 mm 0.00 in0.0 mm 0.01 in0.3 mm
01:50 AM 64.9°F18.3°C -35.0°F-37.2°C 0% 7.0 mph SE11.3 kmh SE 13.0 mph20.9 kmh 30.15 in1021.0 mb 0.02 in0.5 mm 0.00 in0.0 mm 0.01 in0.3 mm
01:55 AM 65.0°F18.3°C -35.0°F-37.2°C 0% 8.0 mph SE12.9 kmh SE 14.0 mph22.5 kmh 30.13 in1020.3 mb 0.01 in0.3 mm 0.00 in0.0 mm 0.01 in0.3 mm
02:00 AM 65.0°F18.3°C -35.0°F-37.2°C 0% 10.0 mph SE16.1 kmh SE 18.0 mph29.0 kmh 30.12 in1020.0 mb 0.01 in0.3 mm 0.00 in0.0 mm 0.01 in0.3 mm
02:05 AM 65.1°F18.4°C -35.0°F-37.2°C 0% 10.0 mph SE16.1 kmh SE 18.0 mph29.0 kmh 30.12 in1020.0 mb 0.01 in0.3 mm 0.00 in0.0 mm 0.01 in0.3 mm
02:10 AM 65.2°F18.4°C -35.0°F-37.2°C 0% 10.0 mph SSE16.1 kmh SSE 19.0 mph30.6 kmh 30.10 in1019.3 mb 0.02 in0.5 mm 0.12 in3.0 mm 0.02 in0.5 mm
02:15 AM 65.2°F18.4°C -35.0°F-37.2°C 0% 10.0 mph SSE16.1 kmh SSE 19.0 mph30.6 kmh 30.09 in1019.0 mb 0.02 in0.5 mm 0.00 in0.0 mm 0.02 in0.5 mm
02:20 AM 65.4°F18.6°C -35.0°F-37.2°C 0% 10.0 mph SSE16.1 kmh SSE 17.0 mph27.4 kmh 30.10 in1019.3 mb 0.01 in0.3 mm 0.00 in0.0 mm 0.02 in0.5 mm
02:25 AM 65.7°F18.7°C -35.0°F-37.2°C 0% 10.0 mph SE16.1 kmh SE 20.0 mph32.2 kmh 30.10 in1019.3 mb 0.01 in0.3 mm 0.00 in0.0 mm 0.02 in0.5 mm
02:30 AM 65.9°F18.8°C -35.0°F-37.2°C 0% 8.0 mph SSE12.9 kmh SSE 20.0 mph32.2 kmh 30.13 in1020.3 mb 0.01 in0.3 mm 0.00 in0.0 mm 0.02 in0.5 mm
02:35 AM 65.9°F18.8°C -35.0°F-37.2°C 0% 4.0 mph S6.4 kmh S 13.0 mph20.9 kmh 30.14 in1020.7 mb 0.01 in0.3 mm 0.00 in0.0 mm 0.02 in0.5 mm
02:40 AM 66.0°F18.9°C -35.0°F-37.2°C 0% 3.0 mph NNW4.8 kmh NNW 7.0 mph11.3 kmh 30.14 in1020.7 mb 0.01 in0.3 mm 0.00 in0.0 mm 0.02 in0.5 mm
02:45 AM 66.0°F18.9°C -35.0°F-37.2°C 0% 3.0 mph N4.8 kmh N 7.0 mph11.3 kmh 30.14 in1020.7 mb 0.01 in0.3 mm 0.00 in0.0 mm 0.02 in0.5 mm
02:50 AM 65.9°F18.8°C -35.0°F-37.2°C 0% 2.0 mph ENE3.2 kmh ENE 6.0 mph9.7 kmh 30.13 in1020.3 mb 0.01 in0.3 mm 0.00 in0.0 mm 0.02 in0.5 mm
02:55 AM 65.9°F18.8°C -35.0°F-37.2°C 0% 3.0 mph SE4.8 kmh SE 6.0 mph9.7 kmh 30.13 in1020.3 mb 0.01 in0.3 mm 0.00 in0.0 mm 0.02 in0.5 mm
03:00 AM 65.9°F18.8°C -35.0°F-37.2°C 0% 3.0 mph SE4.8 kmh SE 6.0 mph9.7 kmh 30.13 in1020.3 mb 0.01 in0.3 mm 0.00 in0.0 mm 0.02 in0.5 mm
03:05 AM 65.9°F18.8°C -35.0°F-37.2°C 0% 3.0 mph ESE4.8 kmh ESE 8.0 mph12.9 kmh 30.13 in1020.3 mb 0.01 in0.3 mm 0.00 in0.0 mm 0.02 in0.5 mm
03:10 AM 66.0°F18.9°C -35.0°F-37.2°C 0% 4.0 mph ESE6.4 kmh ESE 11.0 mph17.7 kmh 30.13 in1020.3 mb 0.00 in0.0 mm 0.00 in0.0 mm 0.02 in0.5 mm
03:15 AM 66.1°F18.9°C -35.0°F-37.2°C 0% 4.0 mph SE6.4 kmh SE 11.0 mph17.7 kmh 30.13 in1020.3 mb 0.00 in0.0 mm 0.00 in0.0 mm 0.02 in0.5 mm
03:20 AM 66.2°F19.0°C -35.0°F-37.2°C 0% 4.0 mph SE6.4 kmh SE 8.0 mph12.9 kmh 30.13 in1020.3 mb 0.00 in0.0 mm 0.00 in0.0 mm 0.02 in0.5 mm
03:25 AM 66.3°F19.1°C -35.0°F-37.2°C 0% 4.0 mph SE6.4 kmh SE 8.0 mph12.9 kmh 30.12 in1020.0 mb 0.00 in0.0 mm 0.00 in0.0 mm 0.02 in0.5 mm
03:30 AM 66.3°F19.1°C -35.0°F-37.2°C 0% 3.0 mph SE4.8 kmh SE 8.0 mph12.9 kmh 30.12 in1020.0 mb 0.00 in0.0 mm 0.00 in0.0 mm 0.02 in0.5 mm
03:35 AM 66.2°F19.0°C -35.0°F-37.2°C 0% 3.0 mph SE4.8 kmh SE 5.0 mph8.0 kmh 30.13 in1020.3 mb 0.00 in0.0 mm 0.00 in0.0 mm 0.02 in0.5 mm
03:40 AM 66.2°F19.0°C -35.0°F-37.2°C 0% 2.0 mph SE3.2 kmh SE 5.0 mph8.0 kmh 30.13 in1020.3 mb 0.00 in0.0 mm 0.00 in0.0 mm 0.02 in0.5 mm
03:45 AM 66.1°F18.9°C -35.0°F-37.2°C 0% 2.0 mph SE3.2 kmh SE 4.0 mph6.4 kmh 30.12 in1020.0 mb 0.00 in0.0 mm 0.00 in0.0 mm 0.02 in0.5 mm
03:50 AM 66.0°F18.9°C -35.0°F-37.2°C 0% 2.0 mph SE3.2 kmh SE 4.0 mph6.4 kmh 30.12 in1020.0 mb 0.00 in0.0 mm 0.00 in0.0 mm 0.02 in0.5 mm
03:55 AM 65.9°F18.8°C -35.0°F-37.2°C 0% 2.0 mph SE3.2 kmh SE 4.0 mph6.4 kmh 30.12 in1020.0 mb 0.00 in0.0 mm 0.00 in0.0 mm 0.02 in0.5 mm
04:00 AM 65.8°F18.8°C -35.0°F-37.2°C 0% 1.0 mph SE1.6 kmh SE 2.0 mph3.2 kmh 30.12 in1020.0 mb 0.00 in0.0 mm 0.00 in0.0 mm 0.02 in0.5 mm
04:05 AM 65.7°F18.7°C -35.0°F-37.2°C 0% 1.0 mph SE1.6 kmh SE 4.0 mph6.4 kmh 30.13 in1020.3 mb 0.00 in0.0 mm 0.00 in0.0 mm 0.02 in0.5 mm
04:10 AM 65.8°F18.8°C -35.0°F-37.2°C 0% 3.0 mph E4.8 kmh E 6.0 mph9.7 kmh 30.14 in1020.7 mb 0.00 in0.0 mm 0.00 in0.0 mm 0.02 in0.5 mm
04:15 AM 65.8°F18.8°C -35.0°F-37.2°C 0% 3.0 mph N4.8 kmh N 6.0 mph9.7 kmh 30.12 in1020.0 mb 0.00 in0.0 mm 0.00 in0.0 mm 0.02 in0.5 mm
04:20 AM 65.7°F18.7°C -35.0°F-37.2°C 0% 2.0 mph NNE3.2 kmh NNE 5.0 mph8.0 kmh 30.14 in1020.7 mb 0.00 in0.0 mm 0.00 in0.0 mm 0.02 in0.5 mm
04:25 AM 65.7°F18.7°C -35.0°F-37.2°C 0% 1.0 mph NE1.6 kmh NE 3.0 mph4.8 kmh 30.13 in1020.3 mb 0.00 in0.0 mm 0.00 in0.0 mm 0.02 in0.5 mm
04:30 AM 65.6°F18.7°C -35.0°F-37.2°C 0% 1.0 mph NE1.6 kmh NE 3.0 mph4.8 kmh 30.12 in1020.0 mb 0.00 in0.0 mm 0.00 in0.0 mm 0.02 in0.5 mm
04:35 AM 65.4°F18.6°C -35.0°F-37.2°C 0% 1.0 mph NE1.6 kmh NE 3.0 mph4.8 kmh 30.12 in1020.0 mb 0.00 in0.0 mm 0.00 in0.0 mm 0.02 in0.5 mm
04:40 AM 65.3°F18.5°C -35.0°F-37.2°C 0% Calm Calm 2.0 mph3.2 kmh 30.13 in1020.3 mb 0.00 in0.0 mm 0.00 in0.0 mm 0.02 in0.5 mm
04:45 AM 65.0°F18.3°C -35.0°F-37.2°C 0% 1.0 mph NE1.6 kmh NE 3.0 mph4.8 kmh 30.13 in1020.3 mb 0.00 in0.0 mm 0.00 in0.0 mm 0.02 in0.5 mm
04:50 AM 64.9°F18.3°C -35.0°F-37.2°C 0% 1.0 mph NE1.6 kmh NE 3.0 mph4.8 kmh 30.13 in1020.3 mb 0.00 in0.0 mm 0.00 in0.0 mm 0.02 in0.5 mm
04:55 AM 64.8°F18.2°C -35.0°F-37.2°C 0% 1.0 mph NE1.6 kmh NE 2.0 mph3.2 kmh 30.13 in1020.3 mb 0.00 in0.0 mm 0.00 in0.0 mm 0.02 in0.5 mm
05:00 AM 64.7°F18.2°C -35.0°F-37.2°C 0% 1.0 mph NE1.6 kmh NE 3.0 mph4.8 kmh 30.13 in1020.3 mb 0.00 in0.0 mm 0.00 in0.0 mm 0.02 in0.5 mm
05:05 AM 64.6°F18.1°C -35.0°F-37.2°C 0% 1.0 mph NE1.6 kmh NE 3.0 mph4.8 kmh 30.13 in1020.3 mb 0.00 in0.0 mm 0.00 in0.0 mm 0.02 in0.5 mm
05:10 AM 64.4°F18.0°C -35.0°F-37.2°C 0% 1.0 mph NE1.6 kmh NE 4.0 mph6.4 kmh 30.13 in1020.3 mb 0.00 in0.0 mm 0.00 in0.0 mm 0.02 in0.5 mm
05:15 AM 64.3°F17.9°C -35.0°F-37.2°C 0% 2.0 mph NE3.2 kmh NE 4.0 mph6.4 kmh 30.13 in1020.3 mb 0.00 in0.0 mm 0.00 in0.0 mm 0.02 in0.5 mm
05:20 AM 64.2°F17.9°C -35.0°F-37.2°C 0% 2.0 mph NE3.2 kmh NE 3.0 mph4.8 kmh 30.13 in1020.3 mb 0.00 in0.0 mm 0.00 in0.0 mm 0.02 in0.5 mm
05:25 AM 64.1°F17.8°C -35.0°F-37.2°C 0% 1.0 mph NE1.6 kmh NE 4.0 mph6.4 kmh 30.13 in1020.3 mb 0.00 in0.0 mm 0.00 in0.0 mm 0.02 in0.5 mm
05:30 AM 64.0°F17.8°C -35.0°F-37.2°C 0% 2.0 mph NNE3.2 kmh NNE 4.0 mph6.4 kmh 30.13 in1020.3 mb 0.00 in0.0 mm 0.00 in0.0 mm 0.02 in0.5 mm
05:35 AM 64.0°F17.8°C -35.0°F-37.2°C 0% 2.0 mph NNE3.2 kmh NNE 3.0 mph4.8 kmh 30.12 in1020.0 mb 0.00 in0.0 mm 0.00 in0.0 mm 0.02 in0.5 mm
05:40 AM 63.8°F17.7°C -35.0°F-37.2°C 0% 2.0 mph NNE3.2 kmh NNE 4.0 mph6.4 kmh 30.12 in1020.0 mb 0.00 in0.0 mm 0.00 in0.0 mm 0.02 in0.5 mm
05:45 AM 63.7°F17.6°C -35.0°F-37.2°C 0% 2.0 mph NNE3.2 kmh NNE 4.0 mph6.4 kmh 30.12 in1020.0 mb 0.00 in0.0 mm 0.00 in0.0 mm 0.02 in0.5 mm
05:50 AM 63.6°F17.6°C -35.0°F-37.2°C 0% 2.0 mph NNE3.2 kmh NNE 4.0 mph6.4 kmh 30.12 in1020.0 mb 0.00 in0.0 mm 0.00 in0.0 mm 0.02 in0.5 mm
05:55 AM 63.4°F17.4°C -35.0°F-37.2°C 0% 1.0 mph NNE1.6 kmh NNE 4.0 mph6.4 kmh 30.12 in1020.0 mb 0.00 in0.0 mm 0.00 in0.0 mm 0.02 in0.5 mm
06:00 AM 63.2°F17.3°C -35.0°F-37.2°C 0% 1.0 mph NNE1.6 kmh NNE 3.0 mph4.8 kmh 30.11 in1019.6 mb 0.00 in0.0 mm 0.00 in0.0 mm 0.02 in0.5 mm
06:05 AM 63.1°F17.3°C -35.0°F-37.2°C 0% 1.0 mph NNE1.6 kmh NNE 3.0 mph4.8 kmh 30.11 in1019.6 mb 0.00 in0.0 mm 0.00 in0.0 mm 0.02 in0.5 mm
06:10 AM 62.9°F17.2°C -35.0°F-37.2°C 0% 1.0 mph NNE1.6 kmh NNE 2.0 mph3.2 kmh 30.11 in1019.6 mb 0.00 in0.0 mm 0.00 in0.0 mm 0.02 in0.5 mm
06:15 AM 62.8°F17.1°C -35.0°F-37.2°C 0% Calm Calm 2.0 mph3.2 kmh 30.11 in1019.6 mb 0.00 in0.0 mm 0.00 in0.0 mm 0.02 in0.5 mm
06:20 AM 62.5°F16.9°C -35.0°F-37.2°C 0% Calm Calm 1.0 mph1.6 kmh 30.11 in1019.6 mb 0.00 in0.0 mm 0.00 in0.0 mm 0.02 in0.5 mm
06:25 AM 62.4°F16.9°C -35.0°F-37.2°C 0% Calm Calm 1.0 mph1.6 kmh 30.12 in1020.0 mb 0.00 in0.0 mm 0.00 in0.0 mm 0.02 in0.5 mm
06:30 AM 62.2°F16.8°C -35.0°F-37.2°C 0% 1.0 mph NNE1.6 kmh NNE 2.0 mph3.2 kmh 30.12 in1020.0 mb 0.00 in0.0 mm 0.00 in0.0 mm 0.02 in0.5 mm
06:35 AM 62.1°F16.7°C -35.0°F-37.2°C 0% 1.0 mph NNE1.6 kmh NNE 3.0 mph4.8 kmh 30.12 in1020.0 mb 0.00 in0.0 mm 0.00 in0.0 mm 0.02 in0.5 mm
06:40 AM 62.1°F16.7°C -35.0°F-37.2°C 0% 1.0 mph NNE1.6 kmh NNE 3.0 mph4.8 kmh 30.12 in1020.0 mb 0.00 in0.0 mm 0.00 in0.0 mm 0.02 in0.5 mm
06:45 AM 62.0°F16.7°C -35.0°F-37.2°C 0% Calm Calm 2.0 mph3.2 kmh 30.12 in1020.0 mb 0.00 in0.0 mm 0.00 in0.0 mm 0.02 in0.5 mm
06:50 AM 61.9°F16.6°C -35.0°F-37.2°C 0% Calm Calm 1.0 mph1.6 kmh 30.12 in1020.0 mb 0.00 in0.0 mm 0.00 in0.0 mm 0.02 in0.5 mm
06:55 AM 61.7°F16.5°C -35.0°F-37.2°C 0% Calm Calm 2.0 mph3.2 kmh 30.12 in1020.0 mb 0.00 in0.0 mm 0.00 in0.0 mm 0.02 in0.5 mm
07:00 AM 61.7°F16.5°C -35.0°F-37.2°C 0% 1.0 mph NNE1.6 kmh NNE 3.0 mph4.8 kmh 30.12 in1020.0 mb 0.00 in0.0 mm 0.00 in0.0 mm 0.02 in0.5 mm
07:05 AM 61.6°F16.4°C -35.0°F-37.2°C 0% 1.0 mph NNE1.6 kmh NNE 3.0 mph4.8 kmh 30.13 in1020.3 mb 0.00 in0.0 mm 0.00 in0.0 mm 0.02 in0.5 mm
07:10 AM 61.6°F16.4°C -35.0°F-37.2°C 0% 1.0 mph NNE1.6 kmh NNE 2.0 mph3.2 kmh 30.13 in1020.3 mb 0.00 in0.0 mm 0.00 in0.0 mm 0.02 in0.5 mm
07:15 AM 61.6°F16.4°C -35.0°F-37.2°C 0% 1.0 mph NNE1.6 kmh NNE 3.0 mph4.8 kmh 30.13 in1020.3 mb 0.00 in0.0 mm 0.00 in0.0 mm 0.02 in0.5 mm
07:20 AM 61.6°F16.4°C -35.0°F-37.2°C 0% 1.0 mph NNE1.6 kmh NNE 3.0 mph4.8 kmh 30.13 in1020.3 mb 0.00 in0.0 mm 0.00 in0.0 mm 0.02 in0.5 mm
07:25 AM 61.5°F16.4°C -35.0°F-37.2°C 0% Calm Calm 2.0 mph3.2 kmh 30.13 in1020.3 mb 0.00 in0.0 mm 0.00 in0.0 mm 0.02 in0.5 mm
07:30 AM 61.4°F16.3°C -35.0°F-37.2°C 0% Calm Calm -- 30.13 in1020.3 mb 0.00 in0.0 mm 0.00 in0.0 mm 0.02 in0.5 mm
07:35 AM 61.2°F16.2°C -35.0°F-37.2°C 0% Calm Calm -- 30.13 in1020.3 mb 0.00 in0.0 mm 0.00 in0.0 mm 0.02 in0.5 mm
07:40 AM 61.1°F16.2°C -35.0°F-37.2°C 0% Calm Calm -- 30.13 in1020.3 mb 0.00 in0.0 mm 0.00 in0.0 mm 0.02 in0.5 mm
07:45 AM 60.9°F16.1°C -35.0°F-37.2°C 0% Calm Calm 1.0 mph1.6 kmh 30.13 in1020.3 mb 0.00 in0.0 mm 0.00 in0.0 mm 0.02 in0.5 mm
07:50 AM 60.7°F15.9°C -35.0°F-37.2°C 0% Calm Calm 1.0 mph1.6 kmh 30.14 in1020.7 mb 0.00 in0.0 mm 0.00 in0.0 mm 0.02 in0.5 mm
07:55 AM 60.5°F15.8°C -35.0°F-37.2°C 0% Calm Calm 1.0 mph1.6 kmh 30.14 in1020.7 mb 0.00 in0.0 mm 0.00 in0.0 mm 0.02 in0.5 mm
08:00 AM 60.3°F15.7°C -35.0°F-37.2°C 0% Calm Calm -- 30.14 in1020.7 mb 0.00 in0.0 mm 0.00 in0.0 mm 0.02 in0.5 mm
08:05 AM 60.2°F15.7°C -35.0°F-37.2°C 0% Calm Calm -- 30.14 in1020.7 mb 0.00 in0.0 mm 0.00 in0.0 mm 0.02 in0.5 mm
08:10 AM 60.1°F15.6°C -35.0°F-37.2°C 0% Calm Calm -- 30.14 in1020.7 mb 0.00 in0.0 mm 0.00 in0.0 mm 0.02 in0.5 mm
08:15 AM 60.1°F15.6°C -35.0°F-37.2°C 0% Calm Calm -- 30.14 in1020.7 mb 0.00 in0.0 mm 0.00 in0.0 mm 0.02 in0.5 mm
08:20 AM 60.0°F15.6°C -35.0°F-37.2°C 0% Calm Calm -- 30.14 in1020.7 mb 0.00 in0.0 mm 0.00 in0.0 mm 0.02 in0.5 mm
08:25 AM 59.9°F15.5°C -35.0°F-37.2°C 0% Calm Calm -- 30.14 in1020.7 mb 0.00 in0.0 mm 0.00 in0.0 mm 0.02 in0.5 mm
08:30 AM 60.0°F15.6°C -35.0°F-37.2°C 0% Calm Calm -- 30.14 in1020.7 mb 0.00 in0.0 mm 0.00 in0.0 mm 0.02 in0.5 mm
08:35 AM 60.0°F15.6°C -35.0°F-37.2°C 0% Calm Calm -- 30.14 in1020.7 mb 0.00 in0.0 mm 0.00 in0.0 mm 0.02 in0.5 mm
08:40 AM 60.3°F15.7°C -35.0°F-37.2°C 0% Calm Calm 1.0 mph1.6 kmh 30.14 in1020.7 mb 0.00 in0.0 mm 0.00 in0.0 mm 0.02 in0.5 mm
08:45 AM 60.6°F15.9°C -35.0°F-37.2°C 0% Calm Calm 1.0 mph1.6 kmh 30.15 in1021.0 mb 0.00 in0.0 mm 0.00 in0.0 mm 0.02 in0.5 mm
08:50 AM 61.4°F16.3°C -35.0°F-37.2°C 0% Calm Calm 2.0 mph3.2 kmh 30.15 in1021.0 mb 0.00 in0.0 mm 0.00 in0.0 mm 0.02 in0.5 mm
08:55 AM 62.3°F16.8°C -35.0°F-37.2°C 0% 1.0 mph NNE1.6 kmh NNE 3.0 mph4.8 kmh 30.15 in1021.0 mb 0.00 in0.0 mm 0.00 in0.0 mm 0.02 in0.5 mm
09:00 AM 62.9°F17.2°C -35.0°F-37.2°C 0% 1.0 mph NNE1.6 kmh NNE 3.0 mph4.8 kmh 30.15 in1021.0 mb 0.00 in0.0 mm 0.00 in0.0 mm 0.02 in0.5 mm
09:05 AM 63.4°F17.4°C -35.0°F-37.2°C 0% 1.0 mph NNE1.6 kmh NNE 2.0 mph3.2 kmh 30.15 in1021.0 mb 0.00 in0.0 mm 0.00 in0.0 mm 0.02 in0.5 mm
09:10 AM 63.9°F17.7°C -35.0°F-37.2°C 0% 1.0 mph NNE1.6 kmh NNE 3.0 mph4.8 kmh 30.14 in1020.7 mb 0.00 in0.0 mm 0.00 in0.0 mm 0.02 in0.5 mm
09:15 AM 64.7°F18.2°C -35.0°F-37.2°C 0% 1.0 mph NNE1.6 kmh NNE 3.0 mph4.8 kmh 30.14 in1020.7 mb 0.00 in0.0 mm 0.00 in0.0 mm 0.02 in0.5 mm
09:20 AM 65.2°F18.4°C -35.0°F-37.2°C 0% 1.0 mph NE1.6 kmh NE 4.0 mph6.4 kmh 30.14 in1020.7 mb 0.00 in0.0 mm 0.00 in0.0 mm 0.02 in0.5 mm
09:25 AM 65.8°F18.8°C -35.0°F-37.2°C 0% 1.0 mph ENE1.6 kmh ENE 4.0 mph6.4 kmh 30.15 in1021.0 mb 0.00 in0.0 mm 0.00 in0.0 mm 0.02 in0.5 mm
09:30 AM 66.3°F19.1°C -35.0°F-37.2°C 0% 1.0 mph E1.6 kmh E 3.0 mph4.8 kmh 30.15 in1021.0 mb 0.00 in0.0 mm 0.00 in0.0 mm 0.02 in0.5 mm
09:35 AM 66.8°F19.3°C -35.0°F-37.2°C 0% 1.0 mph ENE1.6 kmh ENE 3.0 mph4.8 kmh 30.15 in1021.0 mb 0.00 in0.0 mm 0.00 in0.0 mm 0.02 in0.5 mm
09:40 AM 67.0°F19.4°C -35.0°F-37.2°C 0% 2.0 mph ENE3.2 kmh ENE 4.0 mph6.4 kmh 30.15 in1021.0 mb 0.00 in0.0 mm 0.00 in0.0 mm 0.02 in0.5 mm
09:45 AM 67.5°F19.7°C -35.0°F-37.2°C 0% 2.0 mph NE3.2 kmh NE 4.0 mph6.4 kmh 30.15 in1021.0 mb 0.00 in0.0 mm 0.00 in0.0 mm 0.02 in0.5 mm
09:50 AM 67.9°F19.9°C -35.0°F-37.2°C 0% 2.0 mph NE3.2 kmh NE 4.0 mph6.4 kmh 30.15 in1021.0 mb 0.00 in0.0 mm 0.00 in0.0 mm 0.02 in0.5 mm
09:55 AM 68.4°F20.2°C -35.0°F-37.2°C 0% 2.0 mph NE3.2 kmh NE 5.0 mph8.0 kmh 30.15 in1021.0 mb 0.00 in0.0 mm 0.00 in0.0 mm 0.02 in0.5 mm
10:00 AM 68.8°F20.4°C -35.0°F-37.2°C 0% 3.0 mph NE4.8 kmh NE 6.0 mph9.7 kmh 30.15 in1021.0 mb 0.00 in0.0 mm 0.00 in0.0 mm 0.02 in0.5 mm
10:05 AM 69.4°F20.8°C -35.0°F-37.2°C 0% 3.0 mph ENE4.8 kmh ENE 6.0 mph9.7 kmh 30.15 in1021.0 mb 0.00 in0.0 mm 0.00 in0.0 mm 0.02 in0.5 mm
10:10 AM 69.7°F20.9°C -35.0°F-37.2°C 0% 2.0 mph ENE3.2 kmh ENE 7.0 mph11.3 kmh 30.15 in1021.0 mb 0.00 in0.0 mm 0.00 in0.0 mm 0.02 in0.5 mm
10:15 AM 70.3°F21.3°C -35.0°F-37.2°C 0% 3.0 mph E4.8 kmh E 7.0 mph11.3 kmh 30.15 in1021.0 mb 0.00 in0.0 mm 0.00 in0.0 mm 0.02 in0.5 mm
10:20 AM 70.7°F21.5°C -35.0°F-37.2°C 0% 3.0 mph ESE4.8 kmh ESE 7.0 mph11.3 kmh 30.15 in1021.0 mb 0.00 in0.0 mm 0.00 in0.0 mm 0.02 in0.5 mm
10:25 AM 71.1°F21.7°C -35.0°F-37.2°C 0% 3.0 mph E4.8 kmh E 6.0 mph9.7 kmh 30.15 in1021.0 mb 0.00 in0.0 mm 0.00 in0.0 mm 0.02 in0.5 mm
10:30 AM 71.5°F21.9°C -35.0°F-37.2°C 0% 3.0 mph E4.8 kmh E 7.0 mph11.3 kmh 30.15 in1021.0 mb 0.00 in0.0 mm 0.00 in0.0 mm 0.02 in0.5 mm
10:35 AM 72.1°F22.3°C -21.1°F-29.5°C 2% 3.0 mph ENE4.8 kmh ENE 7.0 mph11.3 kmh 30.15 in1021.0 mb 0.00 in0.0 mm 0.00 in0.0 mm 0.02 in0.5 mm
10:40 AM 72.5°F22.5°C 7.8°F-13.4°C 8% 4.0 mph E6.4 kmh E 7.0 mph11.3 kmh 30.15 in1021.0 mb 0.00 in0.0 mm 0.00 in0.0 mm 0.02 in0.5 mm
10:45 AM 72.9°F22.7°C 25.5°F-3.6°C 17% 3.0 mph E4.8 kmh E 7.0 mph11.3 kmh 30.14 in1020.7 mb 0.00 in0.0 mm 0.00 in0.0 mm 0.02 in0.5 mm
10:50 AM 73.3°F22.9°C 19.4°F-7.0°C 13% 3.0 mph E4.8 kmh E 7.0 mph11.3 kmh 30.14 in1020.7 mb 0.00 in0.0 mm 0.00 in0.0 mm 0.02 in0.5 mm
10:55 AM 73.8°F23.2°C 31.4°F-0.3°C 21% 3.0 mph E4.8 kmh E 7.0 mph11.3 kmh 30.14 in1020.7 mb 0.00 in0.0 mm 0.00 in0.0 mm 0.02 in0.5 mm
11:00 AM 74.1°F23.4°C 37.0°F2.8°C 26% 2.0 mph E3.2 kmh E 7.0 mph11.3 kmh 30.14 in1020.7 mb 0.00 in0.0 mm 0.00 in0.0 mm 0.02 in0.5 mm
11:05 AM 74.6°F23.7°C 39.3°F4.1°C 28% 2.0 mph ENE3.2 kmh ENE 7.0 mph11.3 kmh 30.14 in1020.7 mb 0.00 in0.0 mm 0.00 in0.0 mm 0.02 in0.5 mm
11:10 AM 75.0°F23.9°C 39.7°F4.3°C 28% 3.0 mph ENE4.8 kmh ENE 8.0 mph12.9 kmh 30.15 in1021.0 mb 0.00 in0.0 mm 0.00 in0.0 mm 0.02 in0.5 mm
11:15 AM 75.3°F24.1°C 47.9°F8.8°C 38% 4.0 mph ENE6.4 kmh ENE 8.0 mph12.9 kmh 30.14 in1020.7 mb 0.00 in0.0 mm 0.00 in0.0 mm 0.02 in0.5 mm
11:20 AM 75.5°F24.2°C 44.4°F6.9°C 33% 3.0 mph ENE4.8 kmh ENE 7.0 mph11.3 kmh 30.14 in1020.7 mb 0.00 in0.0 mm 0.00 in0.0 mm 0.02 in0.5 mm
11:25 AM 76.0°F24.4°C 50.6°F10.3°C 41% 2.0 mph E3.2 kmh E 6.0 mph9.7 kmh 30.14 in1020.7 mb 0.00 in0.0 mm 0.00 in0.0 mm 0.02 in0.5 mm
11:30 AM 76.3°F24.6°C 52.8°F11.6°C 44% 2.0 mph E3.2 kmh E 6.0 mph9.7 kmh 30.14 in1020.7 mb 0.00 in0.0 mm 0.00 in0.0 mm 0.02 in0.5 mm
11:35 AM 76.4°F24.7°C 53.5°F11.9°C 45% 2.0 mph ESE3.2 kmh ESE 7.0 mph11.3 kmh 30.14 in1020.7 mb 0.00 in0.0 mm 0.00 in0.0 mm 0.02 in0.5 mm
11:40 AM 76.7°F24.8°C 55.0°F12.8°C 47% 3.0 mph ESE4.8 kmh ESE 7.0 mph11.3 kmh 30.14 in1020.7 mb 0.00 in0.0 mm 0.00 in0.0 mm 0.02 in0.5 mm
11:45 AM 77.2°F25.1°C 54.8°F12.7°C 46% 3.0 mph E4.8 kmh E 10.0 mph16.1 kmh 30.14 in1020.7 mb 0.00 in0.0 mm 0.00 in0.0 mm 0.02 in0.5 mm
11:50 AM 77.6°F25.3°C 57.5°F14.2°C 50% 3.0 mph E4.8 kmh E 10.0 mph16.1 kmh 30.14 in1020.7 mb 0.00 in0.0 mm 0.00 in0.0 mm 0.02 in0.5 mm
11:55 AM 78.0°F25.6°C 57.9°F14.4°C 50% 3.0 mph E4.8 kmh E 6.0 mph9.7 kmh 30.14 in1020.7 mb 0.00 in0.0 mm 0.00 in0.0 mm 0.02 in0.5 mm
12:00 PM 78.4°F25.8°C 59.9°F15.5°C 53% 3.0 mph E4.8 kmh E 9.0 mph14.5 kmh 30.13 in1020.3 mb 0.00 in0.0 mm 0.00 in0.0 mm 0.02 in0.5 mm
12:05 PM 78.6°F25.9°C 63.6°F17.6°C 60% 3.0 mph E4.8 kmh E 9.0 mph14.5 kmh 30.13 in1020.3 mb 0.00 in0.0 mm 0.00 in0.0 mm 0.02 in0.5 mm
12:10 PM 78.9°F26.1°C 63.4°F17.4°C 59% 3.0 mph ESE4.8 kmh ESE 9.0 mph14.5 kmh 30.13 in1020.3 mb 0.00 in0.0 mm 0.00 in0.0 mm 0.02 in0.5 mm
12:15 PM 79.3°F26.3°C 62.7°F17.1°C 57% 3.0 mph SE4.8 kmh SE 8.0 mph12.9 kmh 30.13 in1020.3 mb 0.00 in0.0 mm 0.00 in0.0 mm 0.02 in0.5 mm
12:20 PM 79.3°F26.3°C 65.1°F18.4°C 62% 4.0 mph SE6.4 kmh SE 9.0 mph14.5 kmh 30.13 in1020.3 mb 0.00 in0.0 mm 0.00 in0.0 mm 0.02 in0.5 mm
12:25 PM 79.6°F26.4°C 65.9°F18.8°C 63% 4.0 mph SSE6.4 kmh SSE 9.0 mph14.5 kmh 30.13 in1020.3 mb 0.00 in0.0 mm 0.00 in0.0 mm 0.02 in0.5 mm
12:30 PM 79.7°F26.5°C 66.0°F18.9°C 63% 5.0 mph SSE8.0 kmh SSE 9.0 mph14.5 kmh 30.12 in1020.0 mb 0.00 in0.0 mm 0.00 in0.0 mm 0.02 in0.5 mm
12:35 PM 79.8°F26.6°C 66.1°F18.9°C 63% 4.0 mph SSE6.4 kmh SSE 9.0 mph14.5 kmh 30.12 in1020.0 mb 0.00 in0.0 mm 0.00 in0.0 mm 0.02 in0.5 mm
12:40 PM 80.3°F26.8°C 65.1°F18.4°C 60% 3.0 mph SE4.8 kmh SE 9.0 mph14.5 kmh 30.12 in1020.0 mb 0.00 in0.0 mm 0.00 in0.0 mm 0.02 in0.5 mm
12:45 PM 80.9°F27.2°C 67.6°F19.8°C 64% 3.0 mph SE4.8 kmh SE 8.0 mph12.9 kmh 30.12 in1020.0 mb 0.00 in0.0 mm 0.00 in0.0 mm 0.02 in0.5 mm
12:50 PM 81.3°F27.4°C 68.0°F20.0°C 64% 4.0 mph ESE6.4 kmh ESE 8.0 mph12.9 kmh 30.12 in1020.0 mb 0.00 in0.0 mm 0.00 in0.0 mm 0.02 in0.5 mm
12:55 PM 81.5°F27.5°C 68.6°F20.3°C 65% 3.0 mph SSE4.8 kmh SSE 8.0 mph12.9 kmh 30.12 in1020.0 mb 0.00 in0.0 mm 0.00 in0.0 mm 0.02 in0.5 mm
01:00 PM 81.3°F27.4°C 68.4°F20.2°C 65% 4.0 mph S6.4 kmh S 9.0 mph14.5 kmh 30.12 in1020.0 mb 0.00 in0.0 mm 0.00 in0.0 mm 0.02 in0.5 mm
01:05 PM 81.3°F27.4°C 68.4°F20.2°C 65% 4.0 mph SSE6.4 kmh SSE 9.0 mph14.5 kmh 30.11 in1019.6 mb 0.00 in0.0 mm 0.00 in0.0 mm 0.02 in0.5 mm
01:10 PM 80.9°F27.2°C 68.5°F20.3°C 66% 4.0 mph SSE6.4 kmh SSE 8.0 mph12.9 kmh 30.11 in1019.6 mb 0.00 in0.0 mm 0.00 in0.0 mm 0.02 in0.5 mm
01:15 PM 81.0°F27.2°C 68.1°F20.1°C 65% 4.0 mph S6.4 kmh S 9.0 mph14.5 kmh 30.11 in1019.6 mb 0.00 in0.0 mm 0.00 in0.0 mm 0.02 in0.5 mm
01:20 PM 81.3°F27.4°C 68.4°F20.2°C 65% 4.0 mph S6.4 kmh S 9.0 mph14.5 kmh 30.11 in1019.6 mb 0.00 in0.0 mm 0.00 in0.0 mm 0.02 in0.5 mm
01:25 PM 81.5°F27.5°C 69.0°F20.6°C 66% 3.0 mph S4.8 kmh S 8.0 mph12.9 kmh 30.11 in1019.6 mb 0.00 in0.0 mm 0.00 in0.0 mm 0.02 in0.5 mm
01:30 PM 81.7°F27.6°C 68.8°F20.4°C 65% 3.0 mph S4.8 kmh S 8.0 mph12.9 kmh 30.11 in1019.6 mb 0.00 in0.0 mm 0.00 in0.0 mm 0.02 in0.5 mm
01:35 PM 82.1°F27.8°C 69.6°F20.9°C 66% 2.0 mph S3.2 kmh S 8.0 mph12.9 kmh 30.11 in1019.6 mb 0.00 in0.0 mm 0.00 in0.0 mm 0.02 in0.5 mm
01:40 PM 82.1°F27.8°C 69.6°F20.9°C 66% 3.0 mph SSE4.8 kmh SSE 8.0 mph12.9 kmh 30.10 in1019.3 mb 0.00 in0.0 mm 0.00 in0.0 mm 0.02 in0.5 mm
01:45 PM 82.3°F27.9°C 69.8°F21.0°C 66% 5.0 mph SE8.0 kmh SE 10.0 mph16.1 kmh 30.10 in1019.3 mb 0.00 in0.0 mm 0.00 in0.0 mm 0.02 in0.5 mm
01:50 PM 82.3°F27.9°C 69.4°F20.8°C 65% 5.0 mph SSE8.0 kmh SSE 10.0 mph16.1 kmh 30.10 in1019.3 mb 0.00 in0.0 mm 0.00 in0.0 mm 0.02 in0.5 mm
01:55 PM 81.8°F27.7°C 68.9°F20.5°C 65% 4.0 mph S6.4 kmh S 9.0 mph14.5 kmh 30.09 in1019.0 mb 0.00 in0.0 mm 0.00 in0.0 mm 0.02 in0.5 mm
02:00 PM 81.6°F27.6°C 69.1°F20.6°C 66% 3.0 mph S4.8 kmh S 7.0 mph11.3 kmh 30.09 in1019.0 mb 0.00 in0.0 mm 0.00 in0.0 mm 0.02 in0.5 mm
02:05 PM 82.0°F27.8°C 69.5°F20.8°C 66% 3.0 mph S4.8 kmh S 7.0 mph11.3 kmh 30.09 in1019.0 mb 0.00 in0.0 mm 0.00 in0.0 mm 0.02 in0.5 mm
02:10 PM 82.6°F28.1°C 70.1°F21.2°C 66% 3.0 mph S4.8 kmh S 8.0 mph12.9 kmh 30.09 in1019.0 mb 0.00 in0.0 mm 0.00 in0.0 mm 0.02 in0.5 mm
02:15 PM 83.1°F28.4°C 70.1°F21.2°C 65% 4.0 mph SSE6.4 kmh SSE 8.0 mph12.9 kmh 30.09 in1019.0 mb 0.00 in0.0 mm 0.00 in0.0 mm 0.02 in0.5 mm
02:20 PM 82.9°F28.3°C 69.9°F21.1°C 65% 4.0 mph S6.4 kmh S 8.0 mph12.9 kmh 30.09 in1019.0 mb 0.00 in0.0 mm 0.00 in0.0 mm 0.02 in0.5 mm
02:25 PM 83.1°F28.4°C 70.6°F21.4°C 66% 3.0 mph S4.8 kmh S 8.0 mph12.9 kmh 30.08 in1018.6 mb 0.00 in0.0 mm 0.00 in0.0 mm 0.02 in0.5 mm
02:30 PM 83.7°F28.7°C 70.7°F21.5°C 65% 3.0 mph S4.8 kmh S 8.0 mph12.9 kmh 30.08 in1018.6 mb 0.00 in0.0 mm 0.00 in0.0 mm 0.02 in0.5 mm
02:35 PM 84.3°F29.1°C 70.3°F21.3°C 63% 2.0 mph S3.2 kmh S 5.0 mph8.0 kmh 30.08 in1018.6 mb 0.00 in0.0 mm 0.00 in0.0 mm 0.02 in0.5 mm
02:40 PM 84.5°F29.2°C 70.0°F21.1°C 62% 2.0 mph SSW3.2 kmh SSW 6.0 mph9.7 kmh 30.07 in1018.3 mb 0.00 in0.0 mm 0.00 in0.0 mm 0.02 in0.5 mm
02:45 PM 84.6°F29.2°C 70.6°F21.4°C 63% 3.0 mph S4.8 kmh S 8.0 mph12.9 kmh 30.07 in1018.3 mb 0.00 in0.0 mm 0.00 in0.0 mm 0.02 in0.5 mm
02:50 PM 84.6°F29.2°C 70.1°F21.2°C 62% 5.0 mph SSE8.0 kmh SSE 8.0 mph12.9 kmh 30.07 in1018.3 mb 0.00 in0.0 mm 0.00 in0.0 mm 0.02 in0.5 mm
02:55 PM 84.8°F29.3°C 70.3°F21.3°C 62% 5.0 mph SSE8.0 kmh SSE 9.0 mph14.5 kmh 30.06 in1017.9 mb 0.00 in0.0 mm 0.00 in0.0 mm 0.02 in0.5 mm
03:00 PM 84.8°F29.3°C 69.9°F21.1°C 61% 5.0 mph S8.0 kmh S 9.0 mph14.5 kmh 30.06 in1017.9 mb 0.00 in0.0 mm 0.00 in0.0 mm 0.02 in0.5 mm
03:05 PM 84.4°F29.1°C 70.0°F21.1°C 62% 5.0 mph S8.0 kmh S 8.0 mph12.9 kmh 30.06 in1017.9 mb 0.00 in0.0 mm 0.00 in0.0 mm 0.02 in0.5 mm
03:10 PM 84.0°F28.9°C 70.5°F21.4°C 64% 5.0 mph S8.0 kmh S 10.0 mph16.1 kmh 30.06 in1017.9 mb 0.00 in0.0 mm 0.00 in0.0 mm 0.02 in0.5 mm
03:15 PM 84.3°F29.1°C 69.9°F21.1°C 62% 5.0 mph S8.0 kmh S 10.0 mph16.1 kmh 30.05 in1017.6 mb 0.00 in0.0 mm 0.00 in0.0 mm 0.02 in0.5 mm
03:20 PM 84.8°F29.3°C 69.9°F21.1°C 61% 5.0 mph SSE8.0 kmh SSE 8.0 mph12.9 kmh 30.05 in1017.6 mb 0.00 in0.0 mm 0.00 in0.0 mm 0.02 in0.5 mm
03:25 PM 84.7°F29.3°C 70.2°F21.2°C 62% 5.0 mph SSE8.0 kmh SSE 8.0 mph12.9 kmh 30.05 in1017.6 mb 0.00 in0.0 mm 0.00 in0.0 mm 0.02 in0.5 mm
03:30 PM 84.3°F29.1°C 70.3°F21.3°C 63% 4.0 mph S6.4 kmh S 7.0 mph11.3 kmh 30.05 in1017.6 mb 0.00 in0.0 mm 0.00 in0.0 mm 0.02 in0.5 mm
03:35 PM 84.7°F29.3°C 70.2°F21.2°C 62% 3.0 mph SSW4.8 kmh SSW 9.0 mph14.5 kmh 30.05 in1017.6 mb 0.00 in0.0 mm 0.00 in0.0 mm 0.02 in0.5 mm
03:40 PM 85.4°F29.7°C 70.4°F21.3°C 61% 3.0 mph SW4.8 kmh SW 9.0 mph14.5 kmh 30.05 in1017.6 mb 0.00 in0.0 mm 0.00 in0.0 mm 0.02 in0.5 mm
03:45 PM 84.7°F29.3°C 70.2°F21.2°C 62% 3.0 mph SW4.8 kmh SW 7.0 mph11.3 kmh 30.04 in1017.3 mb 0.00 in0.0 mm 0.00 in0.0 mm 0.02 in0.5 mm
03:50 PM 83.9°F28.8°C 70.0°F21.1°C 63% 3.0 mph SW4.8 kmh SW 7.0 mph11.3 kmh 30.04 in1017.3 mb 0.00 in0.0 mm 0.00 in0.0 mm 0.02 in0.5 mm
03:55 PM 83.4°F28.6°C 69.5°F20.8°C 63% 3.0 mph SSW4.8 kmh SSW 8.0 mph12.9 kmh 30.04 in1017.3 mb 0.00 in0.0 mm 0.00 in0.0 mm 0.02 in0.5 mm
04:00 PM 82.7°F28.2°C 68.8°F20.4°C 63% 3.0 mph S4.8 kmh S 8.0 mph12.9 kmh 30.03 in1016.9 mb 0.00 in0.0 mm 0.00 in0.0 mm 0.02 in0.5 mm
04:05 PM 82.2°F27.9°C 69.3°F20.7°C 65% 3.0 mph S4.8 kmh S 7.0 mph11.3 kmh 30.03 in1016.9 mb 0.00 in0.0 mm 0.00 in0.0 mm 0.02 in0.5 mm
04:10 PM 81.6°F27.6°C 68.7°F20.4°C 65% 3.0 mph SW4.8 kmh SW 6.0 mph9.7 kmh 30.04 in1017.3 mb 0.00 in0.0 mm 0.00 in0.0 mm 0.02 in0.5 mm
04:15 PM 80.9°F27.2°C 68.5°F20.3°C 66% 3.0 mph SW4.8 kmh SW 8.0 mph12.9 kmh 30.04 in1017.3 mb 0.00 in0.0 mm 0.00 in0.0 mm 0.02 in0.5 mm
04:20 PM 80.2°F26.8°C 68.2°F20.1°C 67% 3.0 mph SW4.8 kmh SW 8.0 mph12.9 kmh 30.04 in1017.3 mb 0.00 in0.0 mm 0.00 in0.0 mm 0.02 in0.5 mm
04:25 PM 79.7°F26.5°C 68.2°F20.1°C 68% 2.0 mph WSW3.2 kmh WSW 6.0 mph9.7 kmh 30.04 in1017.3 mb 0.00 in0.0 mm 0.00 in0.0 mm 0.02 in0.5 mm
04:30 PM 79.1°F26.2°C 67.2°F19.6°C 67% 2.0 mph WSW3.2 kmh WSW 6.0 mph9.7 kmh 30.05 in1017.6 mb 0.01 in0.3 mm 0.12 in3.0 mm 0.03 in0.8 mm
04:35 PM 76.8°F24.9°C 60.4°F15.8°C 57% 3.0 mph WSW4.8 kmh WSW 12.0 mph19.3 kmh 30.06 in1017.9 mb 0.25 in6.4 mm 2.88 in73.2 mm 0.27 in6.9 mm
04:40 PM 74.9°F23.8°C 46.9°F8.3°C 37% 4.0 mph SW6.4 kmh SW 12.0 mph19.3 kmh 30.05 in1017.6 mb 0.29 in7.4 mm 0.48 in12.2 mm 0.31 in7.9 mm
04:45 PM 73.6°F23.1°C 24.6°F-4.1°C 16% 2.0 mph SW3.2 kmh SW 6.0 mph9.7 kmh 30.05 in1017.6 mb 0.29 in7.4 mm 0.00 in0.0 mm 0.31 in7.9 mm
04:50 PM 72.8°F22.7°C 1.7°F-16.8°C 6% 2.0 mph WSW3.2 kmh WSW 5.0 mph8.0 kmh 30.05 in1017.6 mb 0.29 in7.4 mm 0.00 in0.0 mm 0.31 in7.9 mm
04:55 PM 72.3°F22.4°C -33.8°F-36.6°C 1% 2.0 mph W3.2 kmh W 5.0 mph8.0 kmh 30.05 in1017.6 mb 0.29 in7.4 mm 0.00 in0.0 mm 0.31 in7.9 mm
05:00 PM 72.0°F22.2°C -33.9°F-36.6°C 0% 2.0 mph WSW3.2 kmh WSW 5.0 mph8.0 kmh 30.05 in1017.6 mb 0.29 in7.4 mm 0.00 in0.0 mm 0.31 in7.9 mm
05:05 PM 71.9°F22.2°C -33.9°F-36.6°C 0% 1.0 mph WSW1.6 kmh WSW 5.0 mph8.0 kmh 30.05 in1017.6 mb 0.29 in7.4 mm 0.00 in0.0 mm 0.31 in7.9 mm
05:10 PM 71.9°F22.2°C -33.9°F-36.6°C 0% 1.0 mph WSW1.6 kmh WSW 4.0 mph6.4 kmh 30.05 in1017.6 mb 0.29 in7.4 mm 0.00 in0.0 mm 0.31 in7.9 mm
05:15 PM 71.9°F22.2°C -33.9°F-36.6°C 0% 1.0 mph WSW1.6 kmh WSW 4.0 mph6.4 kmh 30.05 in1017.6 mb 0.29 in7.4 mm 0.00 in0.0 mm 0.31 in7.9 mm
05:20 PM 71.9°F22.2°C -33.9°F-36.6°C 0% 2.0 mph WSW3.2 kmh WSW 4.0 mph6.4 kmh 30.05 in1017.6 mb 0.29 in7.4 mm 0.00 in0.0 mm 0.31 in7.9 mm
05:25 PM 72.0°F22.2°C -33.9°F-36.6°C 0% 2.0 mph WSW3.2 kmh WSW 4.0 mph6.4 kmh 30.04 in1017.3 mb 0.29 in7.4 mm 0.00 in0.0 mm 0.31 in7.9 mm
05:30 PM 71.9°F22.2°C -33.9°F-36.6°C 0% 1.0 mph WSW1.6 kmh WSW 3.0 mph4.8 kmh 30.04 in1017.3 mb 0.22 in5.6 mm 0.00 in0.0 mm 0.31 in7.9 mm
05:35 PM 72.0°F22.2°C -33.9°F-36.6°C 0% 1.0 mph WSW1.6 kmh WSW 3.0 mph4.8 kmh 30.05 in1017.6 mb 0.02 in0.5 mm 0.00 in0.0 mm 0.31 in7.9 mm
05:40 PM 72.1°F22.3°C -33.9°F-36.6°C 0% Calm Calm 2.0 mph3.2 kmh 30.05 in1017.6 mb 0.00 in0.0 mm 0.00 in0.0 mm 0.31 in7.9 mm
05:45 PM 72.2°F22.3°C -33.9°F-36.6°C 0% 1.0 mph WSW1.6 kmh WSW 3.0 mph4.8 kmh 30.05 in1017.6 mb 0.00 in0.0 mm 0.00 in0.0 mm 0.31 in7.9 mm
05:50 PM 72.2°F22.3°C -33.9°F-36.6°C 0% 2.0 mph WSW3.2 kmh WSW 4.0 mph6.4 kmh 30.05 in1017.6 mb 0.00 in0.0 mm 0.00 in0.0 mm 0.31 in7.9 mm
05:55 PM 72.2°F22.3°C -33.9°F-36.6°C 0% 2.0 mph WSW3.2 kmh WSW 4.0 mph6.4 kmh 30.05 in1017.6 mb 0.00 in0.0 mm 0.00 in0.0 mm 0.31 in7.9 mm
06:00 PM 72.3°F22.4°C -33.9°F-36.6°C 0% 1.0 mph WSW1.6 kmh WSW 4.0 mph6.4 kmh 30.05 in1017.6 mb 0.00 in0.0 mm 0.00 in0.0 mm 0.31 in7.9 mm
06:05 PM 72.3°F22.4°C -33.9°F-36.6°C 0% 1.0 mph WSW1.6 kmh WSW 4.0 mph6.4 kmh 30.06 in1017.9 mb 0.00 in0.0 mm 0.00 in0.0 mm 0.31 in7.9 mm
06:10 PM 72.2°F22.3°C -33.9°F-36.6°C 0% 2.0 mph WSW3.2 kmh WSW 5.0 mph8.0 kmh 30.06 in1017.9 mb 0.00 in0.0 mm 0.00 in0.0 mm 0.31 in7.9 mm
06:15 PM 72.1°F22.3°C -33.9°F-36.6°C 0% 2.0 mph SW3.2 kmh SW 5.0 mph8.0 kmh 30.05 in1017.6 mb 0.00 in0.0 mm 0.00 in0.0 mm 0.31 in7.9 mm
06:20 PM 72.0°F22.2°C -33.9°F-36.6°C 0% 2.0 mph SW3.2 kmh SW 5.0 mph8.0 kmh 30.05 in1017.6 mb 0.00 in0.0 mm 0.00 in0.0 mm 0.31 in7.9 mm
06:25 PM 72.0°F22.2°C -33.9°F-36.6°C 0% 2.0 mph SW3.2 kmh SW 5.0 mph8.0 kmh 30.05 in1017.6 mb 0.00 in0.0 mm 0.00 in0.0 mm 0.31 in7.9 mm
06:30 PM 72.0°F22.2°C -33.9°F-36.6°C 0% 1.0 mph SW1.6 kmh SW 4.0 mph6.4 kmh 30.05 in1017.6 mb 0.00 in0.0 mm 0.00 in0.0 mm 0.31 in7.9 mm
06:35 PM 72.0°F22.2°C -33.9°F-36.6°C 0% 2.0 mph SW3.2 kmh SW 5.0 mph8.0 kmh 30.05 in1017.6 mb 0.00 in0.0 mm 0.00 in0.0 mm 0.31 in7.9 mm
06:40 PM 71.7°F22.1°C -33.9°F-36.6°C 0% 2.0 mph SW3.2 kmh SW 5.0 mph8.0 kmh 30.04 in1017.3 mb 0.00 in0.0 mm 0.00 in0.0 mm 0.31 in7.9 mm
06:45 PM 71.5°F21.9°C -33.9°F-36.6°C 0% 2.0 mph SW3.2 kmh SW 5.0 mph8.0 kmh 30.03 in1016.9 mb 0.00 in0.0 mm 0.00 in0.0 mm 0.31 in7.9 mm
06:50 PM 71.4°F21.9°C -33.9°F-36.6°C 0% 4.0 mph SSE6.4 kmh SSE 11.0 mph17.7 kmh 30.00 in1015.9 mb 0.00 in0.0 mm 0.00 in0.0 mm 0.31 in7.9 mm
06:55 PM 71.2°F21.8°C -33.9°F-36.6°C 0% 7.0 mph SE11.3 kmh SE 11.0 mph17.7 kmh 29.99 in1015.6 mb 0.01 in0.3 mm 0.12 in3.0 mm 0.32 in8.1 mm
07:00 PM 71.0°F21.7°C -33.9°F-36.6°C 0% 6.0 mph SE9.7 kmh SE 11.0 mph17.7 kmh 29.99 in1015.6 mb 0.01 in0.3 mm 0.00 in0.0 mm 0.32 in8.1 mm
07:05 PM 70.8°F21.6°C -33.9°F-36.6°C 0% 4.0 mph SSE6.4 kmh SSE 6.0 mph9.7 kmh 29.99 in1015.6 mb 0.01 in0.3 mm 0.00 in0.0 mm 0.32 in8.1 mm
07:10 PM 70.7°F21.5°C -33.9°F-36.6°C 0% 3.0 mph SE4.8 kmh SE 6.0 mph9.7 kmh 29.98 in1015.2 mb 0.01 in0.3 mm 0.00 in0.0 mm 0.32 in8.1 mm
07:15 PM 70.6°F21.4°C -33.9°F-36.6°C 0% 2.0 mph SE3.2 kmh SE 6.0 mph9.7 kmh 29.98 in1015.2 mb 0.01 in0.3 mm 0.00 in0.0 mm 0.32 in8.1 mm
07:20 PM 70.5°F21.4°C -33.9°F-36.6°C 0% 2.0 mph SE3.2 kmh SE 5.0 mph8.0 kmh 29.99 in1015.6 mb 0.01 in0.3 mm 0.00 in0.0 mm 0.32 in8.1 mm
07:25 PM 70.4°F21.3°C -33.9°F-36.6°C 0% 1.0 mph SE1.6 kmh SE 4.0 mph6.4 kmh 29.98 in1015.2 mb 0.01 in0.3 mm 0.00 in0.0 mm 0.32 in8.1 mm
07:30 PM 70.3°F21.3°C -33.9°F-36.6°C 0% Calm Calm 2.0 mph3.2 kmh 29.99 in1015.6 mb 0.01 in0.3 mm 0.00 in0.0 mm 0.32 in8.1 mm
07:35 PM 70.1°F21.2°C -33.9°F-36.6°C 0% Calm Calm 1.0 mph1.6 kmh 29.99 in1015.6 mb 0.01 in0.3 mm 0.00 in0.0 mm 0.32 in8.1 mm
07:40 PM 70.1°F21.2°C -33.9°F-36.6°C 0% 1.0 mph SE1.6 kmh SE 2.0 mph3.2 kmh 30.00 in1015.9 mb 0.01 in0.3 mm 0.00 in0.0 mm 0.32 in8.1 mm
07:45 PM 70.0°F21.1°C -33.9°F-36.6°C 0% 1.0 mph S1.6 kmh S 3.0 mph4.8 kmh 30.01 in1016.3 mb 0.01 in0.3 mm 0.00 in0.0 mm 0.32 in8.1 mm
07:50 PM 70.0°F21.1°C -33.9°F-36.6°C 0% 2.0 mph WNW3.2 kmh WNW 4.0 mph6.4 kmh 30.00 in1015.9 mb 0.01 in0.3 mm 0.00 in0.0 mm 0.32 in8.1 mm
07:55 PM 69.9°F21.1°C -33.9°F-36.6°C 0% 2.0 mph NW3.2 kmh NW 6.0 mph9.7 kmh 30.00 in1015.9 mb 0.00 in0.0 mm 0.00 in0.0 mm 0.32 in8.1 mm
08:00 PM 69.9°F21.1°C -33.9°F-36.6°C 0% 2.0 mph NW3.2 kmh NW 6.0 mph9.7 kmh 30.00 in1015.9 mb 0.00 in0.0 mm 0.00 in0.0 mm 0.32 in8.1 mm
08:05 PM 69.8°F21.0°C -33.9°F-36.6°C 0% 1.0 mph WNW1.6 kmh WNW 4.0 mph6.4 kmh 29.99 in1015.6 mb 0.00 in0.0 mm 0.00 in0.0 mm 0.32 in8.1 mm
08:10 PM 69.7°F20.9°C -33.9°F-36.6°C 0% 1.0 mph WNW1.6 kmh WNW 2.0 mph3.2 kmh 29.97 in1014.9 mb 0.00 in0.0 mm 0.00 in0.0 mm 0.32 in8.1 mm
08:15 PM 69.7°F20.9°C -33.9°F-36.6°C 0% 1.0 mph WNW1.6 kmh WNW 2.0 mph3.2 kmh 29.99 in1015.6 mb 0.00 in0.0 mm 0.00 in0.0 mm 0.32 in8.1 mm
08:20 PM 69.6°F20.9°C -33.9°F-36.6°C 0% 1.0 mph WNW1.6 kmh WNW 2.0 mph3.2 kmh 29.99 in1015.6 mb 0.00 in0.0 mm 0.00 in0.0 mm 0.32 in8.1 mm
08:25 PM 69.5°F20.8°C -33.9°F-36.6°C 0% Calm Calm 2.0 mph3.2 kmh 29.99 in1015.6 mb 0.00 in0.0 mm 0.00 in0.0 mm 0.32 in8.1 mm
08:30 PM 69.4°F20.8°C -33.9°F-36.6°C 0% 1.0 mph WNW1.6 kmh WNW 3.0 mph4.8 kmh 29.99 in1015.6 mb 0.00 in0.0 mm 0.00 in0.0 mm 0.32 in8.1 mm
08:35 PM 69.2°F20.7°C -33.9°F-36.6°C 0% 1.0 mph WNW1.6 kmh WNW 3.0 mph4.8 kmh 30.00 in1015.9 mb 0.00 in0.0 mm 0.00 in0.0 mm 0.32 in8.1 mm
08:40 PM 69.2°F20.7°C -33.9°F-36.6°C 0% 1.0 mph WNW1.6 kmh WNW 2.0 mph3.2 kmh 30.01 in1016.3 mb 0.00 in0.0 mm 0.00 in0.0 mm 0.32 in8.1 mm
08:45 PM 69.1°F20.6°C -33.9°F-36.6°C 0% 1.0 mph WNW1.6 kmh WNW 3.0 mph4.8 kmh 30.02 in1016.6 mb 0.00 in0.0 mm 0.00 in0.0 mm 0.32 in8.1 mm
08:50 PM 69.0°F20.6°C -33.9°F-36.6°C 0% 1.0 mph WNW1.6 kmh WNW 3.0 mph4.8 kmh 30.02 in1016.6 mb 0.00 in0.0 mm 0.00 in0.0 mm 0.32 in8.1 mm
08:55 PM 68.8°F20.4°C -33.9°F-36.6°C 0% Calm Calm 2.0 mph3.2 kmh 30.02 in1016.6 mb 0.00 in0.0 mm 0.00 in0.0 mm 0.32 in8.1 mm
09:00 PM 68.6°F20.3°C -33.9°F-36.6°C 0% 1.0 mph WNW1.6 kmh WNW 2.0 mph3.2 kmh 30.02 in1016.6 mb 0.00 in0.0 mm 0.00 in0.0 mm 0.32 in8.1 mm
09:05 PM 68.5°F20.3°C -33.9°F-36.6°C 0% 1.0 mph WNW1.6 kmh WNW 2.0 mph3.2 kmh 30.02 in1016.6 mb 0.00 in0.0 mm 0.00 in0.0 mm 0.32 in8.1 mm
09:10 PM 68.4°F20.2°C -33.9°F-36.6°C 0% Calm Calm 2.0 mph3.2 kmh 30.02 in1016.6 mb 0.00 in0.0 mm 0.00 in0.0 mm 0.32 in8.1 mm
09:15 PM 68.2°F20.1°C -33.9°F-36.6°C 0% Calm Calm 1.0 mph1.6 kmh 30.02 in1016.6 mb 0.00 in0.0 mm 0.00 in0.0 mm 0.32 in8.1 mm
09:20 PM 68.0°F20.0°C -33.9°F-36.6°C 0% Calm Calm 1.0 mph1.6 kmh 30.02 in1016.6 mb 0.00 in0.0 mm 0.00 in0.0 mm 0.32 in8.1 mm
09:25 PM 67.8°F19.9°C -33.9°F-36.6°C 0% Calm Calm 1.0 mph1.6 kmh 30.02 in1016.6 mb 0.00 in0.0 mm 0.00 in0.0 mm 0.32 in8.1 mm
09:30 PM 67.7°F19.8°C -33.9°F-36.6°C 0% Calm Calm 1.0 mph1.6 kmh 30.02 in1016.6 mb 0.00 in0.0 mm 0.00 in0.0 mm 0.32 in8.1 mm
09:35 PM 67.5°F19.7°C -33.9°F-36.6°C 0% Calm Calm 1.0 mph1.6 kmh 30.02 in1016.6 mb 0.00 in0.0 mm 0.00 in0.0 mm 0.32 in8.1 mm
09:40 PM 67.4°F19.7°C -33.9°F-36.6°C 0% Calm Calm 1.0 mph1.6 kmh 30.03 in1016.9 mb 0.00 in0.0 mm 0.00 in0.0 mm 0.32 in8.1 mm
09:45 PM 67.3°F19.6°C -33.9°F-36.6°C 0% Calm Calm 1.0 mph1.6 kmh 30.03 in1016.9 mb 0.00 in0.0 mm 0.00 in0.0 mm 0.32 in8.1 mm
09:50 PM 67.2°F19.6°C -33.9°F-36.6°C 0% Calm Calm 1.0 mph1.6 kmh 30.03 in1016.9 mb 0.00 in0.0 mm 0.00 in0.0 mm 0.32 in8.1 mm
09:55 PM 67.1°F19.5°C -33.9°F-36.6°C 0% Calm Calm 1.0 mph1.6 kmh 30.03 in1016.9 mb 0.00 in0.0 mm 0.00 in0.0 mm 0.32 in8.1 mm
10:00 PM 66.9°F19.4°C -33.9°F-36.6°C 0% Calm Calm -- 30.03 in1016.9 mb 0.00 in0.0 mm 0.00 in0.0 mm 0.32 in8.1 mm
10:05 PM 66.8°F19.3°C -33.9°F-36.6°C 0% Calm Calm -- 30.03 in1016.9 mb 0.00 in0.0 mm 0.00 in0.0 mm 0.32 in8.1 mm
10:10 PM 66.8°F19.3°C -33.9°F-36.6°C 0% Calm Calm -- 30.03 in1016.9 mb 0.00 in0.0 mm 0.00 in0.0 mm 0.32 in8.1 mm
10:15 PM 66.9°F19.4°C -33.9°F-36.6°C 0% Calm Calm 1.0 mph1.6 kmh 30.03 in1016.9 mb 0.00 in0.0 mm 0.00 in0.0 mm 0.32 in8.1 mm
10:20 PM 67.0°F19.4°C -33.9°F-36.6°C 0% Calm Calm 1.0 mph1.6 kmh 30.03 in1016.9 mb 0.00 in0.0 mm 0.00 in0.0 mm 0.32 in8.1 mm
10:25 PM 67.2°F19.6°C -33.9°F-36.6°C 0% Calm Calm 1.0 mph1.6 kmh 30.03 in1016.9 mb 0.00 in0.0 mm 0.00 in0.0 mm 0.32 in8.1 mm
10:30 PM 67.6°F19.8°C -33.9°F-36.6°C 0% Calm Calm 1.0 mph1.6 kmh 30.03 in1016.9 mb 0.00 in0.0 mm 0.00 in0.0 mm 0.32 in8.1 mm
10:35 PM 67.8°F19.9°C -33.9°F-36.6°C 0% Calm Calm 2.0 mph3.2 kmh 30.03 in1016.9 mb 0.00 in0.0 mm 0.00 in0.0 mm 0.32 in8.1 mm
10:40 PM 68.2°F20.1°C -33.9°F-36.6°C 0% 1.0 mph WNW1.6 kmh WNW 2.0 mph3.2 kmh 30.03 in1016.9 mb 0.00 in0.0 mm 0.00 in0.0 mm 0.32 in8.1 mm
10:45 PM 68.6°F20.3°C -33.9°F-36.6°C 0% 1.0 mph WNW1.6 kmh WNW 3.0 mph4.8 kmh 30.03 in1016.9 mb 0.00 in0.0 mm 0.00 in0.0 mm 0.32 in8.1 mm
10:50 PM 68.8°F20.4°C -33.9°F-36.6°C 0% 1.0 mph WNW1.6 kmh WNW 3.0 mph4.8 kmh 30.04 in1017.3 mb 0.00 in0.0 mm 0.00 in0.0 mm 0.32 in8.1 mm
10:55 PM 68.9°F20.5°C -33.9°F-36.6°C 0% 1.0 mph WNW1.6 kmh WNW 3.0 mph4.8 kmh 30.04 in1017.3 mb 0.00 in0.0 mm 0.00 in0.0 mm 0.32 in8.1 mm
11:00 PM 68.9°F20.5°C -33.9°F-36.6°C 0% 1.0 mph WNW1.6 kmh WNW 3.0 mph4.8 kmh 30.04 in1017.3 mb 0.00 in0.0 mm 0.00 in0.0 mm 0.32 in8.1 mm
11:05 PM 69.0°F20.6°C -33.9°F-36.6°C 0% 1.0 mph WNW1.6 kmh WNW 2.0 mph3.2 kmh 30.04 in1017.3 mb 0.00 in0.0 mm 0.00 in0.0 mm 0.32 in8.1 mm
11:10 PM 69.0°F20.6°C -33.9°F-36.6°C 0% 1.0 mph WNW1.6 kmh WNW 2.0 mph3.2 kmh 30.04 in1017.3 mb 0.00 in0.0 mm 0.00 in0.0 mm 0.32 in8.1 mm
11:15 PM 69.0°F20.6°C -33.9°F-36.6°C 0% 1.0 mph WNW1.6 kmh WNW 3.0 mph4.8 kmh 30.04 in1017.3 mb 0.00 in0.0 mm 0.00 in0.0 mm 0.32 in8.1 mm
11:20 PM 69.0°F20.6°C -33.9°F-36.6°C 0% Calm Calm 3.0 mph4.8 kmh 30.04 in1017.3 mb 0.00 in0.0 mm 0.00 in0.0 mm 0.32 in8.1 mm
11:25 PM 69.0°F20.6°C -33.9°F-36.6°C 0% Calm Calm 1.0 mph1.6 kmh 30.04 in1017.3 mb 0.00 in0.0 mm 0.00 in0.0 mm 0.32 in8.1 mm
11:30 PM 69.0°F20.6°C -33.9°F-36.6°C 0% Calm Calm 1.0 mph1.6 kmh 30.04 in1017.3 mb 0.00 in0.0 mm 0.00 in0.0 mm 0.32 in8.1 mm
11:35 PM 69.0°F20.6°C -33.9°F-36.6°C 0% Calm Calm 1.0 mph1.6 kmh 30.04 in1017.3 mb 0.00 in0.0 mm 0.00 in0.0 mm 0.32 in8.1 mm
11:40 PM 69.0°F20.6°C -33.9°F-36.6°C 0% 1.0 mph WNW1.6 kmh WNW 2.0 mph3.2 kmh 30.04 in1017.3 mb 0.00 in0.0 mm 0.00 in0.0 mm 0.32 in8.1 mm
11:45 PM 69.0°F20.6°C -33.9°F-36.6°C 0% 1.0 mph WNW1.6 kmh WNW 2.0 mph3.2 kmh 30.04 in1017.3 mb 0.00 in0.0 mm 0.00 in0.0 mm 0.32 in8.1 mm
11:50 PM 69.1°F20.6°C -33.9°F-36.6°C 0% Calm Calm 2.0 mph3.2 kmh 30.04 in1017.3 mb 0.00 in0.0 mm 0.00 in0.0 mm 0.32 in8.1 mm
11:55 PM 69.1°F20.6°C -33.9°F-36.6°C 0% Calm Calm 2.0 mph3.2 kmh 30.04 in1017.3 mb 0.00 in0.0 mm 0.00 in0.0 mm 0.32 in8.1 mm